Time;durP1;ratioP1;P1;durP2;ratioP2;P2;SDS_P1;SDS_P2;PMS_P1;PMS_P2;Temp;Humidity;BMP_temperature;BMP_pressure;BME280_temperature;BME280_humidity;BME280_pressure;Samples;Min_cycle;Max_cycle;Signal;HPM_P1;HPM_P2
2022/03/11 00:01:28;;;;;;;8.07;5.68;;;;;;;7.83;55.82;101842.97;5034271;28;20318;-77
2022/03/11 00:03:55;;;;;;;6.40;5.13;;;;;;;7.81;55.49;101842.13;5031771;28;20028;-77
2022/03/11 00:06:20;;;;;;;5.40;4.90;;;;;;;7.82;56.61;101843.81;5047619;28;20112;-78
2022/03/11 00:08:46;;;;;;;10.15;5.22;;;;;;;7.79;55.81;101843.88;5029710;28;20037;-77
2022/03/11 00:11:11;;;;;;;6.03;4.75;;;;;;;7.78;55.63;101849.97;5030433;28;20052;-77
2022/03/11 00:13:36;;;;;;;5.22;4.72;;;;;;;7.77;56.43;101846.50;5048277;28;20083;-77
2022/03/11 00:16:02;;;;;;;6.68;5.13;;;;;;;7.76;56.47;101839.56;5057879;28;20049;-77
2022/03/11 00:18:27;;;;;;;5.60;5.03;;;;;;;7.74;55.32;101843.94;5029948;28;20109;-77
2022/03/11 00:20:53;;;;;;;5.55;5.03;;;;;;;7.72;55.82;101832.66;5035775;28;20052;-77
2022/03/11 00:23:18;;;;;;;7.05;5.40;;;;;;;7.70;55.63;101829.22;5021963;28;20345;-78
2022/03/11 00:25:43;;;;;;;5.45;4.72;;;;;;;7.68;55.94;101826.63;5044658;28;20045;-77
2022/03/11 00:28:09;;;;;;;5.72;5.13;;;;;;;7.66;55.88;101827.53;5054978;28;20036;-78
2022/03/11 00:30:34;;;;;;;7.65;6.28;;;;;;;7.59;53.67;101823.28;5035259;28;20091;-77
2022/03/11 00:33:00;;;;;;;7.55;5.93;;;;;;;7.57;54.67;101822.44;5045839;28;20037;-77
2022/03/11 00:35:27;;;;;;;6.65;5.72;;;;;;;7.55;54.56;101817.25;5034130;28;20132;-77
2022/03/11 00:37:52;;;;;;;5.72;5.22;;;;;;;7.52;54.42;101826.84;5034748;28;20236;-77
2022/03/11 00:40:18;;;;;;;6.47;5.38;;;;;;;7.49;54.70;101814.69;5047669;28;20044;-77
2022/03/11 00:42:43;;;;;;;8.10;6.30;;;;;;;7.43;53.25;101813.03;5029981;28;20109;-78
2022/03/11 00:45:09;;;;;;;7.35;5.72;;;;;;;7.40;53.38;101815.66;5050826;28;20206;-77
2022/03/11 00:47:35;;;;;;;7.40;6.22;;;;;;;7.36;53.45;101816.59;5028410;28;20304;-77
2022/03/11 00:50:00;;;;;;;6.45;5.68;;;;;;;7.36;54.24;101813.97;5033995;28;20081;-77
2022/03/11 00:52:26;;;;;;;11.57;5.80;;;;;;;7.34;54.67;101813.13;5054440;28;20044;-78
2022/03/11 00:54:52;;;;;;;12.55;5.93;;;;;;;7.33;54.36;101813.16;5039251;28;20104;-77
2022/03/11 00:57:17;;;;;;;8.98;5.95;;;;;;;7.31;54.21;101805.34;5030415;28;20375;-77
2022/03/11 00:59:43;;;;;;;7.55;5.65;;;;;;;7.29;53.78;101801.91;5035489;28;20043;-77
2022/03/11 01:02:08;;;;;;;10.30;5.82;;;;;;;7.28;54.75;101801.06;5035786;28;20036;-77
2022/03/11 01:04:34;;;;;;;7.50;6.15;;;;;;;7.27;55.17;101798.47;5034522;28;20431;-77
2022/03/11 01:06:59;;;;;;;5.55;5.05;;;;;;;7.28;55.74;101794.97;5043255;28;20103;-77
2022/03/11 01:09:25;;;;;;;6.63;5.78;;;;;;;7.28;55.41;101794.97;5026972;28;20075;-77
2022/03/11 01:11:50;;;;;;;6.70;5.60;;;;;;;7.28;56.76;101785.41;5024127;28;20307;-77
2022/03/11 01:14:16;;;;;;;6.55;5.82;;;;;;;7.25;55.14;101784.59;5007985;28;20041;-77
2022/03/11 01:16:41;;;;;;;8.48;5.75;;;;;;;7.23;55.56;101779.38;5026058;28;20048;-77
2022/03/11 01:19:06;;;;;;;9.13;6.50;;;;;;;7.19;54.86;101769.03;5011185;28;20036;-77
2022/03/11 01:21:32;;;;;;;10.55;5.95;;;;;;;7.13;54.22;101771.69;5018554;28;20330;-77
2022/03/11 01:23:57;;;;;;;7.35;5.82;;;;;;;7.12;55.19;101773.44;5023424;28;20068;-77
2022/03/11 01:26:23;;;;;;;8.68;6.18;;;;;;;7.13;55.94;101762.16;5036558;28;20037;-77
2022/03/11 01:28:49;;;;;;;6.47;5.15;;;;;;;7.10;55.38;101763.03;5060166;28;21115;-77
2022/03/11 01:31:17;;;;;;;9.50;6.18;;;;;;;7.06;55.14;101758.75;5023453;28;20327;-77
2022/03/11 01:33:44;;;;;;;10.68;6.25;;;;;;;7.05;55.55;101757.00;5036054;28;20055;-77
2022/03/11 01:36:10;;;;;;;6.18;5.50;;;;;;;7.06;56.15;101758.75;5027665;28;20040;-77
2022/03/11 01:38:36;;;;;;;5.72;5.22;;;;;;;7.06;56.44;101753.53;5054737;28;20368;-77
2022/03/11 01:41:02;;;;;;;8.13;6.00;;;;;;;7.05;55.94;101743.13;5024891;28;20022;-77
2022/03/11 01:43:28;;;;;;;7.53;5.53;;;;;;;7.05;56.31;101737.94;5071613;28;20048;-77
2022/03/11 01:45:54;;;;;;;10.05;6.60;;;;;;;7.03;56.04;101737.94;5055859;28;20094;-77
2022/03/11 01:48:19;;;;;;;6.75;5.85;;;;;;;7.02;56.18;101741.44;5048220;28;20037;-77
2022/03/11 01:50:45;;;;;;;9.57;6.50;;;;;;;7.02;56.12;101730.13;5050624;28;20041;-77
2022/03/11 01:53:12;;;;;;;10.45;7.00;;;;;;;6.94;54.11;101730.25;5028040;28;20043;-77
2022/03/11 01:55:38;;;;;;;11.23;6.80;;;;;;;6.91;55.09;101727.66;5050505;28;20052;-77
2022/03/11 01:58:05;;;;;;;8.82;6.85;;;;;;;6.88;55.05;101731.16;5027816;28;20021;-77
2022/03/11 02:00:31;;;;;;;10.27;6.30;;;;;;;6.89;55.74;101726.81;5039929;28;20072;-77
2022/03/11 02:02:57;;;;;;;7.05;5.53;;;;;;;6.88;56.05;101723.34;5042632;28;20025;-77
2022/03/11 02:05:22;;;;;;;7.38;5.43;;;;;;;6.90;56.43;101721.59;5057953;28;20098;-77
2022/03/11 02:07:49;;;;;;;7.43;5.43;;;;;;;6.87;55.54;101716.41;5023193;28;20017;-77
2022/03/11 02:10:15;;;;;;;7.28;5.88;;;;;;;6.83;55.86;101713.88;5064719;28;20037;-77
2022/03/11 02:12:40;;;;;;;16.27;7.15;;;;;;;6.76;54.84;101714.81;5048671;28;20037;-77
2022/03/11 02:15:08;;;;;;;10.40;7.35;;;;;;;6.71;55.22;101710.53;5028623;28;20058;-77
2022/03/11 02:17:33;;;;;;;8.85;6.43;;;;;;;6.70;55.96;101706.19;5027398;28;20123;-77
2022/03/11 02:19:59;;;;;;;8.75;6.55;;;;;;;6.70;56.71;101708.78;5053295;28;20040;-77
2022/03/11 02:22:25;;;;;;;6.78;6.10;;;;;;;6.71;56.74;101707.03;5035963;28;20048;-77
2022/03/11 02:24:51;;;;;;;8.02;6.32;;;;;;;6.70;56.80;101698.38;5072022;28;20043;-77
2022/03/11 02:27:17;;;;;;;7.68;5.88;;;;;;;6.68;56.02;101697.53;5031284;28;20286;-77
2022/03/11 02:29:42;;;;;;;10.13;7.45;;;;;;;6.60;55.22;101691.53;5045934;28;20045;-77
2022/03/11 02:32:09;;;;;;;13.43;8.27;;;;;;;6.58;55.29;101682.03;5022273;28;20037;-77
2022/03/11 02:34:36;;;;;;;6.57;5.70;;;;;;;6.61;56.25;101684.63;5041153;28;20040;-77
2022/03/11 02:37:02;;;;;;;8.13;6.38;;;;;;;6.62;57.45;101673.31;5024636;28;20025;-77
2022/03/11 02:39:28;;;;;;;10.38;8.00;;;;;;;6.61;56.55;101677.66;5036351;28;20159;-77
2022/03/11 02:41:53;;;;;;;7.45;6.65;;;;;;;6.59;55.69;101673.38;5057126;28;20040;-77
2022/03/11 02:44:19;;;;;;;10.50;7.35;;;;;;;6.55;56.56;101669.94;5046366;28;20116;-77
2022/03/11 02:46:45;;;;;;;13.93;7.90;;;;;;;6.54;56.20;101679.47;5059608;28;20037;-77
2022/03/11 02:49:10;;;;;;;12.80;7.38;;;;;;;6.54;57.43;101668.19;5025239;28;20037;-77
2022/03/11 02:51:35;;;;;;;10.13;7.00;;;;;;;6.54;57.50;101678.59;5032723;28;20276;-77
2022/03/11 02:54:01;;;;;;;8.23;6.47;;;;;;;6.54;57.53;101676.00;5039101;28;20228;-77
2022/03/11 02:56:26;;;;;;;9.10;6.63;;;;;;;6.54;57.27;101666.44;5053772;28;20055;-77
2022/03/11 02:58:52;;;;;;;10.55;7.82;;;;;;;6.51;56.46;101670.81;5031113;28;20025;-77
2022/03/11 03:01:17;;;;;;;8.98;6.90;;;;;;;6.49;57.17;101672.56;5031591;28;20041;-77
2022/03/11 03:03:42;;;;;;;9.20;6.93;;;;;;;6.47;57.55;101667.38;5050190;28;20036;-77
2022/03/11 03:06:08;;;;;;;9.57;6.80;;;;;;;6.48;57.94;101670.88;5034507;28;20047;-78
2022/03/11 03:08:34;;;;;;;11.35;7.35;;;;;;;6.48;57.11;101673.47;5037115;28;20048;-77
2022/03/11 03:10:59;;;;;;;7.47;6.50;;;;;;;6.49;57.81;101668.25;5064574;28;20048;-77
2022/03/11 03:13:25;;;;;;;9.48;7.35;;;;;;;6.46;57.27;101665.69;5028369;28;20375;-77
2022/03/11 03:15:51;;;;;;;9.45;6.93;;;;;;;6.45;57.54;101657.88;5051580;28;20048;-77
2022/03/11 03:18:16;;;;;;;11.07;7.72;;;;;;;6.43;57.30;101659.63;5044319;28;20324;-77
2022/03/11 03:20:42;;;;;;;11.63;7.65;;;;;;;6.39;57.16;101656.22;5034553;28;20041;-77
2022/03/11 03:23:07;;;;;;;11.18;7.13;;;;;;;6.39;57.61;101645.81;5020264;28;20033;-77
2022/03/11 03:25:34;;;;;;;10.25;7.60;;;;;;;6.37;57.31;101651.88;5034210;28;20040;-77
2022/03/11 03:27:59;;;;;;;12.50;7.38;;;;;;;6.34;57.54;101648.44;5039300;28;20086;-77
2022/03/11 03:30:25;;;;;;;15.77;7.72;;;;;;;6.28;56.16;101645.91;5059950;28;20041;-78
2022/03/11 03:32:50;;;;;;;10.13;7.50;;;;;;;6.30;57.36;101653.69;5045730;28;20045;-78
2022/03/11 03:35:16;;;;;;;11.13;6.85;;;;;;;6.31;58.22;101645.88;5047099;28;20314;-78
2022/03/11 03:37:42;;;;;;;10.65;6.97;;;;;;;6.32;58.09;101652.78;5041397;28;20044;-78
2022/03/11 03:40:08;;;;;;;9.05;6.72;;;;;;;6.32;57.78;101641.53;5033619;28;20033;-78
2022/03/11 03:42:34;;;;;;;9.60;6.85;;;;;;;6.31;57.70;101640.69;5055340;28;20053;-78
2022/03/11 03:44:59;;;;;;;10.10;7.55;;;;;;;6.27;57.49;101636.38;5044669;28;20228;-78
2022/03/11 03:47:25;;;;;;;12.02;8.10;;;;;;;6.25;57.98;101634.66;5048639;28;20108;-78
2022/03/11 03:49:50;;;;;;;10.93;8.13;;;;;;;6.18;57.65;101639.06;5057497;28;20051;-78
2022/03/11 03:52:16;;;;;;;8.40;6.85;;;;;;;6.19;57.75;101632.16;5054227;28;20033;-78
2022/03/11 03:54:41;;;;;;;11.38;8.40;;;;;;;6.14;56.63;101632.16;5051082;28;20202;-78
2022/03/11 03:57:07;;;;;;;12.07;8.15;;;;;;;6.09;57.14;101636.56;5041094;28;20037;-78
2022/03/11 03:59:34;;;;;;;10.98;7.57;;;;;;;6.06;57.05;101626.19;5057957;28;20040;-78
2022/03/11 04:01:59;;;;;;;9.98;7.57;;;;;;;6.05;57.51;101624.47;5043311;28;20036;-78
2022/03/11 04:04:24;;;;;;;9.93;7.45;;;;;;;6.03;57.87;101621.88;5034570;28;20041;-78
2022/03/11 04:06:50;;;;;;;12.75;8.48;;;;;;;5.96;57.70;101621.06;5062463;28;20040;-78
2022/03/11 04:09:18;;;;;;;9.48;6.65;;;;;;;5.94;57.72;101617.56;5060269;28;20037;-78
2022/03/11 04:11:43;;;;;;;9.38;7.15;;;;;;;5.94;57.99;101616.72;5027660;28;20098;-78
2022/03/11 04:14:09;;;;;;;7.57;6.63;;;;;;;5.92;58.09;101615.88;5051743;28;20355;-79
2022/03/11 04:16:34;;;;;;;11.15;8.07;;;;;;;5.84;57.95;101615.06;5053586;28;20036;-78
2022/03/11 04:19:00;;;;;;;12.90;8.10;;;;;;;5.78;57.77;101610.78;5028658;28;20118;-78
2022/03/11 04:21:26;;;;;;;12.90;8.63;;;;;;;5.76;58.34;101608.19;5066494;28;20067;-78
2022/03/11 04:23:52;;;;;;;11.18;7.93;;;;;;;5.71;58.14;101607.41;5057932;28;20048;-78
2022/03/11 04:26:18;;;;;;;11.98;8.45;;;;;;;5.64;57.87;101608.31;5041881;28;20053;-78
2022/03/11 04:28:44;;;;;;;11.43;7.57;;;;;;;5.60;58.17;101597.94;5029476;28;20118;-78
2022/03/11 04:31:11;;;;;;;11.32;7.75;;;;;;;5.58;58.60;101597.94;5030828;28;20079;-78
2022/03/11 04:33:38;;;;;;;10.63;7.47;;;;;;;5.56;58.12;101599.72;5032693;28;20021;-78
2022/03/11 04:36:04;;;;;;;11.90;7.15;;;;;;;5.54;58.58;101596.25;5046305;28;20029;-78
2022/03/11 04:38:33;;;;;;;8.98;7.00;;;;;;;5.53;58.95;101600.59;5047985;28;20132;-78
2022/03/11 04:41:00;;;;;;;10.60;7.45;;;;;;;5.50;58.89;101594.56;5046110;28;20282;-78
2022/03/11 04:43:25;;;;;;;13.07;8.00;;;;;;;5.47;58.75;101590.25;5046061;28;20256;-78
2022/03/11 04:45:50;;;;;;;11.65;8.75;;;;;;;5.42;58.36;101598.94;5048169;28;20090;-78
2022/03/11 04:48:16;;;;;;;12.25;8.07;;;;;;;5.39;58.34;101600.69;5069469;28;20024;-78
2022/03/11 04:50:42;;;;;;;10.02;7.97;;;;;;;5.43;58.87;101596.34;5071837;28;20056;-78
2022/03/11 04:53:07;;;;;;;10.82;7.53;;;;;;;5.44;59.30;101584.19;5056934;28;20041;-78
2022/03/11 04:55:33;;;;;;;10.90;7.50;;;;;;;5.42;59.33;101597.22;5049120;28;20060;-78
2022/03/11 04:57:58;;;;;;;10.05;7.15;;;;;;;5.43;58.96;101593.75;5063857;28;20040;-78
2022/03/11 05:00:25;;;;;;;9.25;7.22;;;;;;;5.40;58.77;101591.16;5069779;28;20049;-78
2022/03/11 05:02:50;;;;;;;9.60;7.53;;;;;;;5.38;59.00;101590.31;5066658;28;20032;-78
2022/03/11 05:05:16;;;;;;;9.60;6.60;;;;;;;5.40;58.99;101588.56;5073977;28;20051;-78
2022/03/11 05:07:42;;;;;;;10.30;7.25;;;;;;;5.40;59.10;101588.56;5041564;28;20036;-78
2022/03/11 05:10:09;;;;;;;10.27;7.28;;;;;;;5.43;59.43;101580.75;5069267;28;20377;-78
2022/03/11 05:12:35;;;;;;;9.82;6.90;;;;;;;5.44;59.30;101579.88;5053249;28;20070;-78
2022/03/11 05:15:03;;;;;;;10.88;7.28;;;;;;;5.44;58.96;101572.09;5063335;28;20071;-78
2022/03/11 05:17:28;;;;;;;8.23;5.97;;;;;;;5.47;59.75;101572.06;5070444;28;20021;-78
2022/03/11 05:19:53;;;;;;;8.25;6.72;;;;;;;5.48;59.58;101576.38;5040020;28;20064;-78
2022/03/11 05:22:19;;;;;;;12.73;7.30;;;;;;;5.48;59.18;101571.19;5042994;28;20078;-78
2022/03/11 05:24:45;;;;;;;9.05;7.07;;;;;;;5.50;59.70;101573.78;5058602;28;20228;-78
2022/03/11 05:27:10;;;;;;;11.18;7.20;;;;;;;5.48;59.93;101566.00;5041405;28;20388;-77
2022/03/11 05:29:36;;;;;;;9.23;7.07;;;;;;;5.47;59.28;101566.00;5063352;28;20055;-77
2022/03/11 05:32:02;;;;;;;10.48;7.63;;;;;;;5.43;58.70;101562.56;5054387;28;20052;-78
2022/03/11 05:34:27;;;;;;;8.65;7.15;;;;;;;5.46;59.89;101567.75;5049276;28;20229;-77
2022/03/11 05:36:53;;;;;;;8.07;6.57;;;;;;;5.49;60.06;101569.44;5052343;28;20045;-77
2022/03/11 05:39:18;;;;;;;8.95;7.18;;;;;;;5.47;59.08;101576.41;5048903;28;20039;-78
2022/03/11 05:41:46;;;;;;;9.85;7.13;;;;;;;5.46;59.38;101565.16;5044904;28;20127;-77
2022/03/11 05:44:19;;;;;;;8.93;6.67;;;;;;;5.46;59.65;101572.94;5022820;28;20036;-77
2022/03/11 05:46:45;;;;;;;9.30;6.22;;;;;;;5.47;59.96;101574.66;5065674;28;20404;-77
2022/03/11 05:49:11;;;;;;;9.50;7.75;;;;;;;5.46;59.70;101567.75;5064982;28;20428;-77
2022/03/11 05:51:37;;;;;;;8.38;6.38;;;;;;;5.48;59.74;101573.78;5036673;28;20040;-77
2022/03/11 05:54:03;;;;;;;9.00;7.00;;;;;;;5.48;59.61;101568.59;5042125;28;20037;-77
2022/03/11 05:56:28;;;;;;;9.07;6.82;;;;;;;5.43;58.70;101572.97;5046631;28;20041;-78
2022/03/11 05:58:54;;;;;;;10.07;6.97;;;;;;;5.43;59.23;101567.75;5063897;28;20044;-77
2022/03/11 06:01:19;;;;;;;9.07;7.00;;;;;;;5.39;59.16;101566.91;5039658;28;20048;-77
2022/03/11 06:03:48;;;;;;;9.90;6.65;;;;;;;5.41;60.15;101569.50;5073076;28;20036;-77
2022/03/11 06:06:14;;;;;;;12.18;6.63;;;;;;;5.43;60.40;101566.91;5052391;28;20055;-77
2022/03/11 06:08:40;;;;;;;10.07;6.68;;;;;;;5.44;60.37;101572.09;5057379;28;20036;-77
2022/03/11 06:11:06;;;;;;;7.82;5.95;;;;;;;5.44;60.31;101566.91;5069647;28;20043;-77
2022/03/11 06:13:32;;;;;;;10.00;7.20;;;;;;;5.38;57.80;101559.13;5058921;28;20071;-77
2022/03/11 06:15:57;;;;;;;9.93;7.40;;;;;;;5.34;57.91;101550.50;5049144;28;20036;-77
2022/03/11 06:18:23;;;;;;;8.65;6.80;;;;;;;5.34;58.89;101557.44;5066617;28;20044;-77
2022/03/11 06:20:48;;;;;;;9.65;7.40;;;;;;;5.33;58.19;101540.13;5054474;28;20078;-77
2022/03/11 06:23:14;;;;;;;10.10;6.78;;;;;;;5.35;59.87;101538.41;5062296;28;20040;-77
2022/03/11 06:25:40;;;;;;;8.75;6.85;;;;;;;5.36;59.85;101543.56;5059098;28;20055;-77
2022/03/11 06:28:05;;;;;;;10.27;7.30;;;;;;;5.34;59.06;101534.91;5051967;28;20029;-77
2022/03/11 06:30:31;;;;;;;10.65;7.10;;;;;;;5.31;59.17;101536.69;5065505;28;20041;-77
2022/03/11 06:32:57;;;;;;;7.95;7.00;;;;;;;5.30;59.36;101538.41;5073116;28;20050;-77
2022/03/11 06:35:22;;;;;;;6.15;5.45;;;;;;;5.31;59.90;101540.16;5060526;28;20198;-78
2022/03/11 06:37:51;;;;;;;7.63;6.68;;;;;;;5.32;59.57;101539.28;5022968;28;20067;-78
2022/03/11 06:40:18;;;;;;;12.60;7.30;;;;;;;5.29;58.41;101535.84;5039369;28;20040;-77
2022/03/11 06:42:46;;;;;;;8.43;6.80;;;;;;;5.22;57.87;101540.22;5056547;28;20037;-78
2022/03/11 06:45:13;;;;;;;11.43;7.25;;;;;;;5.21;57.86;101542.84;5056756;28;20237;-77
2022/03/11 06:47:39;;;;;;;10.52;6.80;;;;;;;5.19;59.14;101535.91;5072480;28;20036;-78
2022/03/11 06:50:05;;;;;;;8.82;6.40;;;;;;;5.22;59.54;101544.53;5062658;28;20033;-78
2022/03/11 06:52:31;;;;;;;11.60;7.30;;;;;;;5.22;59.27;101541.94;5038965;28;20091;-77
2022/03/11 06:54:56;;;;;;;10.52;6.95;;;;;;;5.24;59.28;101538.47;5069818;28;20032;-77
2022/03/11 06:57:21;;;;;;;10.23;6.72;;;;;;;5.27;59.65;101541.03;5059520;28;20252;-77
2022/03/11 06:59:48;;;;;;;10.30;8.02;;;;;;;5.26;58.54;101543.66;5060207;28;20047;-77
2022/03/11 07:02:14;;;;;;;11.20;7.20;;;;;;;5.24;58.41;101535.00;5048730;28;20132;-77
2022/03/11 07:04:40;;;;;;;13.80;7.05;;;;;;;5.22;58.34;101529.84;5065492;28;20028;-77
2022/03/11 07:07:06;;;;;;;9.13;7.20;;;;;;;5.21;59.30;101533.28;5043986;28;20041;-77
2022/03/11 07:09:32;;;;;;;8.18;6.65;;;;;;;5.24;59.61;101525.50;5063142;28;20040;-77
2022/03/11 07:12:00;;;;;;;13.18;7.82;;;;;;;5.23;58.19;101531.56;5072940;28;20024;-78
2022/03/11 07:14:27;;;;;;;7.95;6.68;;;;;;;5.26;59.03;101528.09;5038986;28;20041;-78
2022/03/11 07:16:53;;;;;;;8.63;6.30;;;;;;;5.25;58.84;101534.13;5060723;28;20039;-77
2022/03/11 07:19:21;;;;;;;11.63;6.32;;;;;;;5.26;59.18;101533.28;5076225;28;20044;-77
2022/03/11 07:21:47;;;;;;;9.50;6.50;;;;;;;5.28;59.95;101532.38;5077570;28;20231;-77
2022/03/11 07:24:12;;;;;;;7.88;6.22;;;;;;;5.31;60.51;101531.47;5059639;28;20273;-77
2022/03/11 07:26:37;;;;;;;10.70;6.03;;;;;;;5.32;59.87;101526.28;5057534;28;20303;-77
2022/03/11 07:29:03;;;;;;;6.43;5.82;;;;;;;5.36;60.83;101527.97;5056632;28;20037;-77
2022/03/11 07:31:29;;;;;;;7.70;6.40;;;;;;;5.39;60.10;101524.50;5057501;28;20147;-77
2022/03/11 07:33:57;;;;;;;9.25;6.35;;;;;;;5.41;59.57;101524.50;5038141;28;20044;-77
2022/03/11 07:36:22;;;;;;;8.25;6.07;;;;;;;5.40;59.69;101536.59;5050076;28;20405;-78
2022/03/11 07:38:48;;;;;;;9.38;7.05;;;;;;;5.40;59.52;101531.41;5038543;28;20041;-77
2022/03/11 07:41:17;;;;;;;9.80;6.68;;;;;;;5.43;59.89;101525.34;5041108;28;20098;-77
2022/03/11 07:43:44;;;;;;;14.57;7.45;;;;;;;5.41;58.82;101517.56;5049912;28;20091;-77
2022/03/11 07:46:14;;;;;;;12.98;7.20;;;;;;;5.43;58.55;101509.75;5048867;28;20064;-77
2022/03/11 07:48:41;;;;;;;15.95;6.75;;;;;;;5.45;59.25;101508.84;5053435;28;20108;-77
2022/03/11 07:51:07;;;;;;;7.55;6.10;;;;;;;5.46;59.39;101513.19;5052550;28;20047;-77
2022/03/11 07:53:33;;;;;;;9.15;7.15;;;;;;;5.51;59.49;101511.41;5054648;28;20340;-77
2022/03/11 07:55:58;;;;;;;7.38;6.10;;;;;;;5.53;59.20;101513.97;5026445;28;20087;-77
2022/03/11 07:58:24;;;;;;;11.15;6.70;;;;;;;5.55;59.25;101513.09;5029478;28;20062;-77
2022/03/11 08:00:50;;;;;;;11.63;7.45;;;;;;;5.56;58.55;101517.41;5027648;28;20048;-77
2022/03/11 08:03:16;;;;;;;11.23;7.90;;;;;;;5.57;59.88;101507.91;5030127;28;20029;-78
2022/03/11 08:05:42;;;;;;;15.98;7.35;;;;;;;5.59;58.65;101498.34;5063487;28;20051;-78
2022/03/11 08:08:08;;;;;;;8.88;7.45;;;;;;;5.61;58.89;101503.53;5039147;28;20029;-78
2022/03/11 08:10:36;;;;;;;12.70;7.30;;;;;;;5.63;59.22;101494.84;5027843;28;20494;-77
2022/03/11 08:13:02;;;;;;;13.35;7.22;;;;;;;5.66;58.42;101496.56;5049719;28;20033;-77
2022/03/11 08:15:27;;;;;;;9.52;6.70;;;;;;;5.69;58.38;101489.56;5062390;28;20104;-77
2022/03/11 08:17:53;;;;;;;10.90;6.47;;;;;;;5.75;58.28;101486.06;5037356;28;20236;-78
2022/03/11 08:20:18;;;;;;;13.05;6.78;;;;;;;5.77;58.26;101494.72;5052659;28;20033;-78
2022/03/11 08:22:45;;;;;;;8.77;6.20;;;;;;;5.83;58.70;101489.44;5030498;28;20060;-78
2022/03/11 08:25:11;;;;;;;9.80;6.40;;;;;;;5.87;59.22;101492.88;5060012;28;20040;-77
2022/03/11 08:27:37;;;;;;;10.77;7.82;;;;;;;5.89;59.57;101488.50;5057168;28;20059;-77
2022/03/11 08:30:05;;;;;;;10.35;7.22;;;;;;;5.91;58.51;101479.84;5045858;28;20241;-77
2022/03/11 08:32:30;;;;;;;10.13;6.15;;;;;;;5.95;58.25;101478.06;5032281;28;20043;-77
2022/03/11 08:34:55;;;;;;;11.20;7.10;;;;;;;6.00;57.98;101480.63;5040534;28;20033;-77
2022/03/11 08:37:21;;;;;;;10.70;7.10;;;;;;;6.05;57.76;101481.44;5037270;28;20075;-77
2022/03/11 08:39:46;;;;;;;10.55;7.07;;;;;;;6.09;57.85;101477.91;5045003;28;20040;-78
2022/03/11 08:42:12;;;;;;;8.23;6.53;;;;;;;6.12;58.17;101470.94;5060166;28;20032;-77
2022/03/11 08:44:37;;;;;;;11.65;7.20;;;;;;;6.16;58.38;101466.56;5029883;28;20041;-77
2022/03/11 08:47:03;;;;;;;8.95;7.30;;;;;;;6.23;57.14;101469.97;5042377;28;20047;-78
2022/03/11 08:49:28;;;;;;;10.15;7.38;;;;;;;6.27;57.90;101469.88;5037561;28;20116;-78
2022/03/11 08:51:54;;;;;;;8.23;6.90;;;;;;;6.31;57.67;101458.56;5042310;28;20128;-78
2022/03/11 08:54:20;;;;;;;9.80;7.45;;;;;;;6.33;57.02;101459.41;5059236;28;20037;-78
2022/03/11 08:56:46;;;;;;;12.43;7.75;;;;;;;6.38;57.46;101459.34;5050763;28;20055;-78
2022/03/11 08:59:12;;;;;;;12.48;7.47;;;;;;;6.42;57.50;101453.25;5033684;28;20335;-77
2022/03/11 09:01:37;;;;;;;10.15;7.25;;;;;;;6.47;57.55;101451.41;5018441;28;20418;-78
2022/03/11 09:04:03;;;;;;;10.40;7.07;;;;;;;6.51;57.91;101447.91;5048510;28;20353;-77
2022/03/11 09:06:30;;;;;;;10.98;6.72;;;;;;;6.58;57.41;101445.19;5055659;28;20358;-77
2022/03/11 09:08:55;;;;;;;10.93;6.80;;;;;;;6.63;57.22;101446.00;5064740;28;20062;-78
2022/03/11 09:11:21;;;;;;;9.20;7.05;;;;;;;6.67;57.39;101442.47;5042413;28;20036;-77
2022/03/11 09:13:47;;;;;;;11.60;7.45;;;;;;;6.72;56.82;101435.44;5051205;28;20032;-78
2022/03/11 09:16:13;;;;;;;13.73;7.22;;;;;;;6.78;56.92;101431.88;5048913;28;20071;-78
2022/03/11 09:18:38;;;;;;;10.05;6.60;;;;;;;6.84;57.78;101430.06;5053013;28;20041;-78
2022/03/11 09:21:04;;;;;;;9.30;7.10;;;;;;;6.90;57.88;101435.16;5038328;28;20367;-77
2022/03/11 09:23:30;;;;;;;14.30;7.32;;;;;;;6.96;58.34;101430.75;5037588;28;20044;-78
2022/03/11 09:25:55;;;;;;;14.00;8.32;;;;;;;7.01;56.91;101431.53;5057835;28;20052;-78
2022/03/11 09:28:22;;;;;;;8.27;7.00;;;;;;;7.04;57.12;101421.03;5044340;28;20037;-78
2022/03/11 09:30:47;;;;;;;13.77;7.47;;;;;;;7.10;56.75;101423.56;5030796;28;20033;-77
2022/03/11 09:33:12;;;;;;;14.55;7.32;;;;;;;7.16;57.15;101426.06;5055672;28;20041;-78
2022/03/11 09:35:38;;;;;;;12.60;6.68;;;;;;;7.24;57.22;101423.31;5058089;28;20366;-78
2022/03/11 09:38:03;;;;;;;12.95;7.45;;;;;;;7.29;57.04;101421.50;5047099;28;20033;-78
2022/03/11 09:40:29;;;;;;;17.95;7.78;;;;;;;7.37;56.81;101421.34;5046765;28;20036;-78
2022/03/11 09:42:56;;;;;;;14.27;7.60;;;;;;;7.42;56.80;101423.00;5056183;28;20048;-78
2022/03/11 09:45:23;;;;;;;13.13;7.22;;;;;;;7.51;56.50;101416.75;5047494;28;20297;-78
2022/03/11 09:47:48;;;;;;;19.05;7.20;;;;;;;7.56;56.80;101414.91;5035972;28;20044;-77
2022/03/11 09:50:14;;;;;;;9.90;7.40;;;;;;;7.59;57.16;101414.00;5053904;28;20375;-78
2022/03/11 09:52:42;;;;;;;14.07;7.32;;;;;;;7.63;57.64;101418.28;5033669;28;20049;-78
2022/03/11 09:55:08;;;;;;;15.10;7.63;;;;;;;7.68;57.35;101403.41;5057794;28;20340;-78
2022/03/11 09:57:34;;;;;;;13.48;8.05;;;;;;;7.75;57.53;101393.69;5055519;28;20051;-78
2022/03/11 09:59:59;;;;;;;10.98;7.72;;;;;;;7.81;56.96;101385.75;5054555;28;20364;-78
2022/03/11 10:02:25;;;;;;;15.52;7.55;;;;;;;7.90;56.98;101392.56;5028072;28;20041;-78
2022/03/11 10:04:57;;;;;;;20.15;7.78;;;;;;;7.96;57.43;101389.81;5032067;28;20048;-78
2022/03/11 10:07:28;;;;;;;14.00;7.68;;;;;;;7.99;57.26;101392.34;5060109;28;20078;-78
2022/03/11 10:09:55;;;;;;;16.27;7.47;;;;;;;8.03;57.09;101384.41;5060644;28;20044;-78
2022/03/11 10:12:27;;;;;;;19.65;8.13;;;;;;;8.10;57.51;101386.91;5055921;28;20324;-78
2022/03/11 10:15:00;;;;;;;17.58;8.45;;;;;;;8.16;57.97;101395.44;5052368;28;20041;-78
2022/03/11 10:17:26;;;;;;;19.10;7.53;;;;;;;8.23;57.59;101377.91;5056160;28;20037;-78
2022/03/11 10:20:00;;;;;;;18.23;7.43;;;;;;;8.29;57.63;101376.91;5043716;28;20024;-78
2022/03/11 10:22:25;;;;;;;13.75;7.28;;;;;;;8.32;57.78;101376.84;5051206;28;20517;-78
2022/03/11 10:24:51;;;;;;;11.35;7.68;;;;;;;8.39;57.71;101378.44;5058089;28;20041;-78
2022/03/11 10:27:16;;;;;;;14.68;7.15;;;;;;;8.45;57.64;101371.31;5044890;28;20037;-78
2022/03/11 10:29:42;;;;;;;16.20;6.50;;;;;;;8.52;57.35;101365.97;5061862;28;20095;-78
2022/03/11 10:32:07;;;;;;;12.25;7.22;;;;;;;8.59;57.53;101368.41;5041492;28;20044;-78
2022/03/11 10:34:34;;;;;;;13.77;7.40;;;;;;;8.65;57.88;101365.63;5041023;28;20054;-78
2022/03/11 10:37:02;;;;;;;10.30;6.85;;;;;;;8.71;57.01;101351.56;5046974;28;20028;-78
2022/03/11 10:39:31;;;;;;;16.35;6.90;;;;;;;8.77;57.62;101354.03;5065546;28;20064;-78
2022/03/11 10:42:18;;;;;;;11.45;7.03;;;;;;;8.85;57.68;101346.00;5045708;28;20317;-78
2022/03/11 10:45:04;;;;;;;18.25;7.82;;;;;;;8.91;57.49;101353.69;5058939;28;20061;-78
2022/03/11 10:47:37;;;;;;;16.15;7.43;;;;;;;8.98;56.83;101350.00;5064070;28;20210;-78
2022/03/11 10:50:09;;;;;;;12.60;7.22;;;;;;;9.06;57.27;101347.22;5034892;28;20254;-78
2022/03/11 10:52:36;;;;;;;11.80;7.18;;;;;;;9.11;57.46;101349.69;5050069;28;20048;-78
2022/03/11 10:55:23;;;;;;;17.73;7.72;;;;;;;9.17;57.82;101339.94;5048291;28;20316;-78
2022/03/11 10:57:52;;;;;;;8.75;6.35;;;;;;;9.22;57.72;101343.31;5058825;28;20384;-78
2022/03/11 11:00:20;;;;;;;10.25;7.55;;;;;;;9.30;57.73;101345.69;5060147;28;20417;-78
2022/03/11 11:02:47;;;;;;;17.52;7.35;;;;;;;9.34;57.41;101342.09;5037627;28;20043;-78
2022/03/11 11:05:13;;;;;;;11.52;7.63;;;;;;;9.40;57.28;101334.09;5059658;28;20139;-78
2022/03/11 11:07:41;;;;;;;10.32;6.93;;;;;;;9.48;56.59;101336.50;5058251;28;20055;-78
2022/03/11 11:10:07;;;;;;;16.30;7.47;;;;;;;9.57;57.07;101330.16;5055035;28;20032;-78
2022/03/11 11:12:33;;;;;;;12.18;7.10;;;;;;;9.63;56.88;101323.88;5038052;28;20295;-78
2022/03/11 11:14:58;;;;;;;13.52;7.60;;;;;;;9.68;56.76;101320.25;5054790;28;20047;-78
2022/03/11 11:17:27;;;;;;;11.80;7.60;;;;;;;9.72;56.07;101318.38;5036968;28;20037;-78
2022/03/11 11:19:56;;;;;;;11.20;7.47;;;;;;;9.79;56.48;101317.31;5058283;28;20302;-78
2022/03/11 11:22:25;;;;;;;8.80;7.70;;;;;;;9.83;56.43;101318.06;5055893;28;20033;-78
2022/03/11 11:24:54;;;;;;;12.02;7.60;;;;;;;9.90;55.64;101303.91;5056583;28;20105;-78